Time;durP1;ratioP1;P1;durP2;ratioP2;P2;SDS_P1;SDS_P2;PMS_P1;PMS_P2;Temp;Humidity;BMP_temperature;BMP_pressure;BME280_temperature;BME280_humidity;BME280_pressure;Samples;Min_cycle;Max_cycle;Signal;HPM_P1;HPM_P2
2022/07/03 00:04:50;;;;;;;5.53;4.40;;;21.50;72.80;;;20.25;59.61;100460.34;10237939;28;96888;-82
2022/07/03 00:09:53;;;;;;;4.78;4.10;;;21.50;73.00;;;20.22;60.04;100458.94;10254100;28;97077;-82
2022/07/03 00:14:56;;;;;;;5.13;4.13;;;21.50;73.30;;;20.21;59.92;100445.63;10257560;28;97018;-83
2022/07/03 00:19:59;;;;;;;5.05;4.05;;;21.50;73.50;;;20.24;60.36;100447.91;10255862;28;97606;-82
2022/07/03 00:25:10;;;;;;;4.70;4.22;;;21.50;73.60;;;20.22;60.51;100455.41;10255716;28;96545;-82
2022/07/03 00:30:13;;;;;;;5.18;4.35;;;21.50;74.00;;;20.18;60.06;100440.72;10257816;28;98945;-82
2022/07/03 00:35:17;;;;;;;4.13;3.72;;;21.40;73.90;;;20.09;60.82;100436.66;10239934;28;96810;-82
2022/07/03 00:40:20;;;;;;;5.03;3.75;;;21.40;74.10;;;19.94;61.06;100437.03;10255024;28;96478;-82
2022/07/03 00:45:26;;;;;;;4.18;3.72;;;21.20;74.50;;;19.82;61.18;100436.13;10255124;28;98129;-82
2022/07/03 00:50:36;;;;;;;4.90;4.40;;;21.10;74.80;;;19.70;61.62;100446.81;10226209;28;96802;-82
2022/07/03 00:55:43;;;;;;;4.60;4.10;;;21.00;75.40;;;19.61;62.11;100437.31;10238296;28;96960;-82
2022/07/03 01:00:52;;;;;;;5.50;4.05;;;20.80;75.80;;;19.49;62.45;100434.50;10235519;28;96815;-83
2022/07/03 01:06:01;;;;;;;4.90;4.40;;;20.80;76.30;;;19.44;62.92;100427.09;10253363;28;96975;-82
2022/07/03 01:12:04;;;;;;;6.00;4.47;;;20.70;76.80;;;19.38;63.49;100422.59;10251881;28;96719;-81
2022/07/03 01:17:30;;;;;;;7.10;5.10;;;20.60;77.10;;;19.31;63.77;100423.66;10248077;28;96759;-82
2022/07/03 01:22:43;;;;;;;6.63;4.82;;;20.60;77.70;;;19.30;64.81;100419.31;10244806;28;96619;-82
2022/07/03 01:28:10;;;;;;;5.55;4.45;;;20.50;78.30;;;19.29;65.43;100426.59;10255756;28;98256;-82
2022/07/03 01:33:22;;;;;;;5.45;4.88;;;20.60;78.50;;;19.27;65.17;100420.59;10277139;28;96970;-82
2022/07/03 01:38:29;;;;;;;5.28;4.75;;;20.60;78.50;;;19.24;65.40;100423.72;10238620;28;96763;-82
2022/07/03 01:43:47;;;;;;;5.78;5.18;;;20.50;79.10;;;19.09;66.12;100417.84;10258721;28;96522;-81
2022/07/03 01:48:51;;;;;;;8.55;5.55;;;20.40;80.30;;;18.85;67.46;100420.28;10245249;28;96557;-82
2022/07/03 01:53:54;;;;;;;5.85;5.18;;;20.10;82.10;;;18.70;68.48;100409.78;10258460;28;96840;-82
2022/07/03 01:58:59;;;;;;;5.65;5.03;;;19.90;83.00;;;18.64;69.26;100413.31;10243509;28;98377;-82
2022/07/03 02:04:21;;;;;;;5.75;5.15;;;19.90;84.00;;;18.69;69.49;100413.53;10243946;28;96479;-82
2022/07/03 02:09:46;;;;;;;6.60;5.15;;;19.90;84.40;;;18.75;69.49;100414.53;10275560;28;97299;-82
2022/07/03 02:15:03;;;;;;;5.95;5.20;;;19.90;84.60;;;18.76;69.65;100416.16;10262138;28;96635;-82
2022/07/03 02:20:09;;;;;;;6.38;5.38;;;20.00;85.00;;;18.73;69.42;100421.19;10243341;28;97468;-82
2022/07/03 02:25:35;;;;;;;6.13;5.43;;;19.90;85.20;;;18.71;69.91;100424.06;10257931;28;96719;-82
2022/07/03 02:30:48;;;;;;;6.88;5.28;;;19.90;85.70;;;18.70;69.71;100417.84;10257736;28;98176;-82
2022/07/03 02:35:56;;;;;;;6.50;5.72;;;20.00;85.90;;;18.68;69.90;100414.56;10244672;28;96591;-82
2022/07/03 02:41:23;;;;;;;5.70;5.10;;;19.90;86.20;;;18.60;70.10;100408.59;10273509;28;96651;-81
2022/07/03 02:46:49;;;;;;;5.93;5.32;;;19.80;86.90;;;18.56;70.38;100415.44;10257401;28;96550;-82
2022/07/03 02:52:34;;;;;;;7.13;5.32;;;19.80;87.40;;;18.53;70.81;100421.22;10260098;28;96416;-82
2022/07/03 02:57:41;;;;;;;8.38;5.93;;;19.80;88.00;;;18.53;71.17;100424.78;10274121;28;96870;-82
2022/07/03 03:02:55;;;;;;;5.95;5.30;;;19.80;88.60;;;18.58;71.24;100424.09;10273287;28;96782;-82
2022/07/03 03:08:19;;;;;;;6.10;5.50;;;19.80;89.00;;;18.65;71.46;100416.81;10257206;28;99597;-82
2022/07/03 03:13:26;;;;;;;6.35;5.70;;;19.90;89.20;;;18.65;71.34;100419.50;10259365;28;96607;-82
2022/07/03 03:18:30;;;;;;;7.55;6.03;;;19.90;89.50;;;18.61;71.42;100413.75;10258516;28;97744;-82
2022/07/03 03:23:50;;;;;;;6.63;5.70;;;19.90;90.00;;;18.68;71.58;100417.25;10259027;28;96474;-82
2022/07/03 03:28:54;;;;;;;6.07;5.47;;;20.00;90.30;;;18.73;71.71;100418.50;10236705;28;96912;-82
2022/07/03 03:33:59;;;;;;;6.78;5.47;;;20.00;90.10;;;18.75;71.61;100425.28;10216530;28;98296;-82
2022/07/03 03:39:03;;;;;;;6.32;5.72;;;20.00;90.30;;;18.74;71.87;100412.88;10254802;28;96715;-82
2022/07/03 03:44:06;;;;;;;6.90;6.20;;;20.00;90.50;;;18.73;71.71;100421.19;10238849;28;96584;-82
2022/07/03 03:49:09;;;;;;;8.15;5.60;;;20.00;90.70;;;18.74;72.05;100418.25;10256539;28;97530;-82
2022/07/03 03:54:12;;;;;;;6.50;5.80;;;20.00;90.80;;;18.81;72.13;100419.03;10231873;28;96475;-82
2022/07/03 03:59:15;;;;;;;7.63;5.50;;;20.00;91.00;;;18.82;72.54;100426.06;10251562;28;97098;-82
2022/07/03 04:04:19;;;;;;;6.47;5.88;;;20.00;91.30;;;18.82;72.68;100428.75;10256785;28;96670;-82
2022/07/03 04:09:22;;;;;;;6.43;5.82;;;20.00;91.60;;;18.82;72.69;100433.34;10253928;28;97310;-82
2022/07/03 04:14:25;;;;;;;6.40;5.72;;;20.00;91.80;;;18.86;72.80;100448.84;10259086;28;98395;-82
2022/07/03 04:19:28;;;;;;;6.22;5.50;;;20.00;92.00;;;18.92;72.94;100431.00;10237717;28;96757;-82
2022/07/03 04:24:31;;;;;;;6.43;5.82;;;20.10;92.10;;;19.03;73.03;100438.38;10255435;28;96536;-82
2022/07/03 04:29:34;;;;;;;6.68;5.95;;;20.20;92.20;;;19.19;72.90;100428.94;10255488;28;97139;-82
2022/07/03 04:34:37;;;;;;;6.13;5.35;;;20.30;92.20;;;19.35;72.69;100422.19;10246267;28;99291;-82
2022/07/03 04:39:40;;;;;;;5.78;5.22;;;20.60;92.10;;;19.57;72.46;100417.25;10258702;28;97741;-82
2022/07/03 04:44:43;;;;;;;7.22;6.18;;;20.80;92.00;;;19.82;72.35;100409.16;10288237;28;96334;-83
2022/07/03 04:49:46;;;;;;;7.03;5.97;;;20.90;92.00;;;20.02;71.90;100415.13;10260537;28;96485;-82
2022/07/03 04:54:49;;;;;;;7.70;5.75;;;21.20;91.80;;;20.25;71.03;100407.19;10242354;28;96684;-82
2022/07/03 04:59:52;;;;;;;6.63;5.82;;;21.40;91.50;;;20.47;70.28;100401.34;10236871;28;96455;-82
2022/07/03 05:04:55;;;;;;;6.22;5.47;;;21.60;91.20;;;20.65;69.75;100395.09;10256805;28;97748;-83
2022/07/03 05:09:58;;;;;;;8.48;6.18;;;21.90;90.90;;;20.82;68.93;100383.41;10254025;28;97274;-82
2022/07/03 05:15:01;;;;;;;7.72;5.50;;;22.00;90.60;;;21.03;68.19;100394.72;10270095;28;96722;-82
2022/07/03 05:25:28;;;;;;;7.35;6.05;;;22.40;89.70;;;21.33;66.81;100387.41;10271400;28;97108;-83
2022/07/03 05:30:31;;;;;;;6.82;5.45;;;22.60;89.00;;;21.54;66.47;100388.72;10241979;28;96528;-83
2022/07/03 05:35:34;;;;;;;7.13;5.13;;;22.80;88.30;;;21.70;65.48;100386.34;10236460;28;96873;-83
2022/07/03 05:40:39;;;;;;;6.10;5.50;;;22.90;87.70;;;21.89;65.18;100393.25;10240056;28;98728;-83
2022/07/03 05:45:42;;;;;;;6.53;5.38;;;23.10;87.10;;;21.96;64.65;100385.84;10252360;28;96563;-83
2022/07/03 05:50:45;;;;;;;6.75;6.07;;;23.20;86.40;;;22.06;64.02;100386.06;10237211;28;97019;-84
2022/07/03 05:55:48;;;;;;;6.72;5.38;;;23.30;86.10;;;22.21;63.90;100398.31;10253055;28;97184;-82
2022/07/03 06:00:51;;;;;;;7.07;5.53;;;23.40;85.30;;;22.32;62.44;100397.44;10235179;28;96752;-83
2022/07/03 06:05:54;;;;;;;6.05;5.28;;;23.60;84.50;;;22.44;62.48;100395.53;10217697;28;97040;-82
2022/07/03 06:10:57;;;;;;;5.30;4.80;;;23.70;84.10;;;22.61;62.06;100401.81;10240411;28;96766;-82
2022/07/03 06:16:00;;;;;;;6.10;5.25;;;23.80;83.50;;;22.78;61.67;100398.31;10258500;28;96617;-82
2022/07/03 06:21:03;;;;;;;5.68;5.15;;;24.00;83.10;;;22.94;60.70;100394.84;10275377;28;96654;-83
2022/07/03 06:26:06;;;;;;;6.47;5.40;;;24.10;82.30;;;23.06;60.21;100398.31;10245834;28;96824;-82
2022/07/03 06:31:10;;;;;;;5.95;4.82;;;24.20;81.50;;;23.16;59.65;100398.47;10258236;28;96816;-82
2022/07/03 06:36:13;;;;;;;5.78;5.28;;;24.30;80.90;;;23.28;59.43;100400.28;10254909;28;97045;-82
2022/07/03 06:41:16;;;;;;;6.63;5.50;;;24.40;80.60;;;23.41;59.59;100389.94;10254150;28;97118;-82
2022/07/03 06:46:19;;;;;;;7.75;5.05;;;24.50;80.70;;;23.60;58.66;100386.94;10258758;28;97161;-83
2022/07/03 06:51:22;;;;;;;7.63;4.82;;;24.80;79.80;;;23.78;58.90;100383.97;10239466;28;97325;-83
2022/07/03 06:56:25;;;;;;;5.75;4.95;;;24.90;79.60;;;24.02;58.10;100387.28;10266172;28;96804;-83
2022/07/03 07:01:32;;;;;;;6.10;4.95;;;25.10;78.90;;;24.28;57.16;100369.41;10256310;28;97526;-83
2022/07/03 07:06:35;;;;;;;6.53;5.53;;;25.40;78.00;;;24.54;56.65;100370.56;10239516;28;96927;-83
2022/07/03 07:11:38;;;;;;;4.82;4.30;;;25.70;77.70;;;24.85;55.38;100357.25;10233628;28;96759;-83
2022/07/03 07:16:41;;;;;;;5.93;5.10;;;26.00;76.50;;;25.05;54.00;100354.72;10258956;28;96686;-83
2022/07/03 07:21:45;;;;;;;7.45;5.13;;;26.20;74.90;;;25.21;53.67;100359.22;10255554;28;97526;-83
2022/07/03 07:26:48;;;;;;;5.30;4.80;;;26.40;74.20;;;25.39;53.18;100354.44;10256272;28;96800;-83
2022/07/03 07:31:51;;;;;;;6.10;5.30;;;26.60;73.70;;;25.57;51.92;100363.00;10253597;28;98272;-84
2022/07/03 07:36:54;;;;;;;7.65;4.75;;;26.70;72.50;;;25.74;52.78;100353.88;10237756;28;97862;-84
2022/07/03 07:41:58;;;;;;;6.60;5.10;;;26.90;72.80;;;25.93;51.90;100360.50;10262315;28;96669;-84
2022/07/03 07:47:00;;;;;;;5.25;4.75;;;27.10;71.90;;;26.16;51.73;100345.63;10260823;28;96555;-84
2022/07/03 07:52:04;;;;;;;8.00;5.28;;;27.30;71.80;;;26.35;50.80;100362.28;10265389;28;96495;-84
2022/07/03 07:57:07;;;;;;;7.30;4.78;;;27.50;71.10;;;26.53;49.82;100358.25;10271068;28;96708;-84
2022/07/03 08:07:32;;;;;;;7.35;5.00;;;27.90;69.80;;;26.93;49.70;100350.13;10267145;28;96667;-84
2022/07/03 08:12:35;;;;;;;5.85;5.25;;;28.10;69.70;;;27.19;48.67;100355.59;10242444;28;100765;-83
2022/07/03 08:17:38;;;;;;;6.15;4.93;;;28.40;68.80;;;27.32;48.41;100346.84;10233879;28;97486;-83
2022/07/03 08:22:41;;;;;;;6.63;4.68;;;28.50;68.30;;;27.46;47.71;100353.38;10267878;28;97111;-84
2022/07/03 08:27:44;;;;;;;6.15;4.72;;;28.70;67.70;;;27.56;47.31;100349.00;10268329;28;96581;-84
2022/07/03 08:32:49;;;;;;;5.55;4.90;;;28.80;66.90;;;27.64;47.54;100346.50;10248839;28;96704;-84
2022/07/03 08:37:53;;;;;;;5.97;4.97;;;28.90;66.90;;;27.78;47.14;100344.06;10254081;28;97869;-84
2022/07/03 08:43:00;;;;;;;6.20;5.60;;;29.00;66.60;;;27.80;46.82;100336.38;10248314;28;96783;-84
2022/07/03 08:48:07;;;;;;;8.73;5.00;;;29.10;66.20;;;27.93;46.84;100327.59;10268883;28;96795;-84
2022/07/03 08:53:11;;;;;;;5.95;5.35;;;29.20;65.80;;;28.05;45.92;100335.47;10255968;28;96708;-84
2022/07/03 08:58:15;;;;;;;5.03;4.53;;;29.30;65.20;;;28.18;46.02;100334.03;10256926;28;97056;-84
2022/07/03 09:03:24;;;;;;;7.35;4.93;;;29.40;65.20;;;28.30;45.46;100323.56;10252821;28;97118;-83
2022/07/03 09:08:28;;;;;;;;;;;29.50;64.60;;;28.53;45.62;100320.19;10255866;28;97373;-82
2022/07/03 09:13:31;;;;;;;7.53;5.15;;;29.70;64.70;;;28.78;45.39;100316.44;10247404;28;96980;-84
2022/07/03 09:18:41;;;;;;;6.30;5.00;;;29.90;64.40;;;28.98;43.75;100310.03;10237807;28;97163;-83
2022/07/03 09:23:46;;;;;;;8.65;5.38;;;30.20;63.00;;;29.10;44.17;100301.44;10259868;28;96650;-84
2022/07/03 09:28:52;;;;;;;5.90;4.82;;;30.30;63.20;;;29.28;44.39;100297.16;10256946;28;97925;-84
2022/07/03 09:34:05;;;;;;;4.50;4.10;;;30.50;62.80;;;29.48;41.07;100302.38;10256248;28;97405;-83
2022/07/03 09:39:17;;;;;;;4.95;4.45;;;30.70;60.00;;;29.69;39.11;100303.00;10236296;28;98103;-83
2022/07/03 09:44:35;;;;;;;4.40;3.33;;;30.90;59.30;;;29.83;37.23;100286.69;10274850;28;97350;-84
2022/07/03 09:49:49;;;;;;;3.15;2.85;;;31.10;57.20;;;30.10;37.24;100278.63;10276985;28;98054;-82
2022/07/03 09:54:53;;;;;;;6.18;4.57;;;31.30;55.90;;;30.27;38.59;100269.09;10254585;28;97203;-84
2022/07/03 10:00:23;;;;;;;4.53;4.10;;;31.50;56.70;;;30.48;37.93;100269.59;10260572;28;96651;-84
2022/07/03 10:05:40;;;;;;;4.20;3.80;;;31.70;56.50;;;30.59;37.57;100260.91;10269492;28;96746;-84
2022/07/03 10:10:48;;;;;;;6.45;3.47;;;31.90;56.00;;;30.72;35.54;100253.06;10241638;28;97525;-84
2022/07/03 10:15:52;;;;;;;3.70;3.20;;;31.90;54.30;;;30.83;35.82;100247.09;10264414;28;97020;-83
2022/07/03 10:20:59;;;;;;;3.55;2.72;;;31.90;53.40;;;30.95;34.54;100249.34;10265526;28;97099;-83
2022/07/03 10:26:02;;;;;;;4.05;2.90;;;32.00;52.90;;;31.08;34.24;100245.00;10258824;28;96868;-83
2022/07/03 10:31:06;;;;;;;4.47;3.05;;;32.20;52.60;;;31.23;34.81;100230.97;10264071;28;96808;-84
2022/07/03 10:36:11;;;;;;;4.82;2.83;;;32.30;52.70;;;31.42;34.43;100233.63;10248388;28;97462;-84
2022/07/03 10:46:49;;;;;;;4.97;3.10;;;32.70;52.90;;;31.82;34.02;100214.69;10256167;28;97027;-84
2022/07/03 10:52:03;;;;;;;3.80;3.33;;;33.00;52.00;;;31.93;33.50;100207.84;10236702;28;97639;-83
2022/07/03 10:57:09;;;;;;;5.68;3.38;;;33.10;51.30;;;32.14;33.15;100206.22;10258079;28;96717;-84
2022/07/03 11:02:27;;;;;;;3.95;3.03;;;33.30;51.10;;;32.25;32.18;100201.31;10256177;28;97148;-84
2022/07/03 11:07:50;;;;;;;3.95;2.63;;;33.40;50.20;;;32.36;32.44;100196.41;10262959;28;96667;-84
2022/07/03 11:13:06;;;;;;;3.97;2.50;;;33.50;50.20;;;32.53;31.55;100180.00;10259028;28;96633;-84
2022/07/03 11:18:23;;;;;;;4.63;3.25;;;33.70;49.50;;;32.74;32.16;100175.56;10248296;28;96607;-84
2022/07/03 11:23:26;;;;;;;3.13;2.38;;;33.90;49.60;;;32.91;30.92;100179.56;10267733;28;96825;-84
2022/07/03 11:28:32;;;;;;;5.40;2.95;;;34.00;48.70;;;33.08;30.97;100174.13;10255786;28;96963;-84
2022/07/03 11:33:42;;;;;;;3.50;2.60;;;34.10;48.70;;;33.27;30.11;100169.16;10256098;28;96679;-84
2022/07/03 11:39:09;;;;;;;5.95;2.63;;;34.30;48.10;;;33.40;29.11;100158.38;10253730;28;96606;-84
2022/07/03 11:44:19;;;;;;;5.03;2.90;;;34.50;47.00;;;33.42;28.52;100145.09;10242917;28;97305;-84
2022/07/03 11:49:24;;;;;;;3.83;2.58;;;34.50;46.80;;;33.54;28.41;100148.03;10244175;28;97818;-83
2022/07/03 11:54:52;;;;;;;5.05;2.50;;;34.60;46.10;;;33.81;28.21;100138.63;10252147;28;96685;-83
2022/07/03 12:00:05;;;;;;;4.75;2.60;;;34.80;46.30;;;34.06;27.68;100135.06;10241375;28;96572;-83
2022/07/03 12:05:15;;;;;;;3.58;2.30;;;35.10;44.80;;;34.19;27.78;100138.81;10254110;28;98205;-84
2022/07/03 12:10:40;;;;;;;3.08;2.60;;;35.20;45.40;;;34.48;27.86;100134.53;10255752;28;96593;-83
2022/07/03 12:15:43;;;;;;;6.75;2.75;;;35.50;45.10;;;34.55;27.80;100126.56;10254291;28;96904;-84
2022/07/03 12:20:46;;;;;;;4.70;2.60;;;35.50;45.50;;;34.60;27.44;100120.84;10256130;28;96671;-85
2022/07/03 12:25:51;;;;;;;3.88;2.60;;;35.60;45.30;;;34.58;27.64;100112.09;10256352;28;97292;-84
2022/07/03 12:30:54;;;;;;;5.32;2.42;;;35.70;45.40;;;34.72;27.97;100109.91;10252188;28;98361;-83
2022/07/03 12:36:08;;;;;;;3.20;2.28;;;35.80;45.40;;;34.90;26.95;100104.31;10255297;28;97564;-83
2022/07/03 12:41:12;;;;;;;3.22;2.45;;;35.90;44.90;;;35.03;27.36;100104.13;10255783;28;96459;-83
2022/07/03 12:46:28;;;;;;;3.45;2.20;;;36.00;45.30;;;35.18;26.92;100102.72;10223415;28;98854;-84
2022/07/03 12:51:44;;;;;;;6.22;2.20;;;36.10;44.50;;;35.28;26.82;100107.84;10255742;28;96597;-84
2022/07/03 13:02:28;;;;;;;5.13;2.50;;;36.20;44.00;;;35.37;26.48;100103.06;10253377;28;96727;-83
2022/07/03 13:07:31;;;;;;;2.85;2.17;;;36.20;44.20;;;35.39;26.05;100095.28;10253858;28;96664;-84
2022/07/03 13:12:34;;;;;;;4.28;2.10;;;36.30;43.60;;;35.42;25.37;100095.72;10257858;28;97366;-84
2022/07/03 13:17:49;;;;;;;5.97;2.28;;;36.30;43.00;;;35.47;24.69;100101.91;10258895;28;96670;-85
2022/07/03 13:23:02;;;;;;;4.43;2.00;;;36.40;42.20;;;35.33;25.82;100093.03;10261503;28;96613;-84
2022/07/03 13:28:11;;;;;;;4.00;1.77;;;36.30;43.10;;;35.29;24.33;100095.66;10262440;28;97306;-84
2022/07/03 13:33:15;;;;;;;3.83;1.73;;;36.20;41.80;;;35.16;25.17;100084.88;10272606;28;97390;-84
2022/07/03 13:38:17;;;;;;;2.78;1.98;;;36.10;42.70;;;35.10;25.13;100081.50;10239848;28;98321;-84
2022/07/03 13:43:20;;;;;;;2.55;1.95;;;36.10;42.30;;;35.01;25.57;100084.31;10223170;28;96937;-83
2022/07/03 13:48:23;;;;;;;5.72;1.52;;;35.90;42.30;;;35.09;25.56;100080.69;10254655;28;98023;-84
2022/07/03 13:53:27;;;;;;;2.15;1.42;;;36.00;42.50;;;35.23;24.73;100082.38;10257664;28;96920;-85
2022/07/03 13:58:30;;;;;;;3.15;1.50;;;36.20;42.20;;;35.33;24.57;100074.50;10271683;28;96730;-84
2022/07/03 14:03:33;;;;;;;4.20;1.40;;;36.30;42.20;;;35.36;24.79;100071.06;10265242;28;96611;-84
2022/07/03 14:08:36;;;;;;;3.70;1.60;;;36.40;42.30;;;35.58;25.57;100075.47;10273424;28;98262;-84
2022/07/03 14:13:39;;;;;;;3.50;1.50;;;36.50;42.40;;;35.59;24.95;100079.84;10258918;28;97290;-84
2022/07/03 14:18:42;;;;;;;3.20;1.65;;;36.50;42.20;;;35.61;25.23;100088.59;10258361;28;96609;-84
2022/07/03 14:23:47;;;;;;;3.10;1.50;;;36.50;42.90;;;35.47;25.76;100077.03;10258418;28;96780;-84
2022/07/03 14:34:12;;;;;;;3.08;1.73;;;36.40;42.80;;;35.47;25.02;100074.25;10251321;28;97604;-84
2022/07/03 14:39:14;;;;;;;3.70;1.80;;;36.30;42.40;;;35.26;24.94;100071.47;10257258;28;97222;-84
2022/07/03 14:44:21;;;;;;;4.40;1.80;;;36.10;42.00;;;35.16;25.70;100066.34;10257278;28;96595;-86
2022/07/03 14:49:26;;;;;;;3.53;1.90;;;35.90;42.80;;;35.06;25.75;100067.53;10258097;28;97417;-85
2022/07/03 14:54:31;;;;;;;5.65;1.60;;;35.80;43.00;;;35.19;26.27;100073.94;10253757;28;97025;-84
2022/07/03 15:00:03;;;;;;;2.10;1.80;;;35.90;43.70;;;35.25;26.19;100064.31;10253223;28;98133;-86
2022/07/03 15:05:09;;;;;;;5.82;2.08;;;36.00;43.30;;;35.23;25.60;100072.16;10256210;28;97481;-85
2022/07/03 15:10:17;;;;;;;2.20;1.60;;;36.00;42.90;;;35.17;24.85;100064.41;10262219;28;96806;-86
2022/07/03 15:15:22;;;;;;;1.95;1.25;;;35.90;42.00;;;35.13;24.68;100062.28;10256635;28;98691;-85
2022/07/03 15:20:36;;;;;;;4.93;1.38;;;35.80;41.70;;;35.11;24.29;100056.31;10247040;22;98203;-85
2022/07/03 15:25:40;;;;;;;3.50;1.27;;;35.80;41.70;;;34.94;23.96;100061.94;10256322;28;97774;-85
2022/07/03 15:30:52;;;;;;;2.83;1.33;;;35.70;41.30;;;34.85;24.75;100053.69;10255239;28;98198;-86
2022/07/03 15:36:00;;;;;;;2.35;1.33;;;35.50;42.00;;;34.80;25.31;100048.38;10265909;28;98219;-85
2022/07/03 15:41:06;;;;;;;1.55;1.20;;;35.50;42.60;;;34.79;25.97;100046.75;10256565;28;98163;-86
2022/07/03 15:46:33;;;;;;;2.97;1.27;;;35.40;43.30;;;34.80;25.73;100044.78;10224195;28;98426;-86
2022/07/03 15:52:21;;;;;;;1.83;1.20;;;35.50;43.00;;;34.75;25.55;100042.22;10255846;28;96704;-85
2022/07/03 15:58:00;;;;;;;1.45;1.20;;;35.40;42.80;;;34.82;25.97;100036.97;10251775;28;97030;-84
2022/07/03 16:03:32;;;;;;;2.73;1.23;;;35.50;43.10;;;34.66;25.08;100036.72;10231288;28;98278;-85
2022/07/03 16:08:40;;;;;;;2.78;1.38;;;35.40;42.50;;;34.57;26.09;100033.22;10243044;28;98391;-85
2022/07/03 16:13:45;;;;;;;2.53;1.33;;;35.30;42.70;;;34.49;25.99;100031.34;10256572;28;96673;-85
2022/07/03 16:18:51;;;;;;;4.22;1.67;;;35.20;43.00;;;34.47;26.40;100030.84;10256590;28;96749;-84
2022/07/03 16:23:55;;;;;;;1.65;1.40;;;35.30;43.50;;;34.39;25.98;100026.16;10225123;28;97379;-84
2022/07/03 16:28:58;;;;;;;3.97;1.30;;;35.30;43.10;;;34.27;26.83;100033.16;10236298;28;96628;-86
2022/07/03 16:34:27;;;;;;;2.40;1.40;;;35.20;43.40;;;34.16;26.65;100034.66;10237865;28;97728;-85
2022/07/03 16:39:37;;;;;;;1.85;1.45;;;35.20;43.40;;;33.93;27.19;100028.56;10236866;28;97264;-85
2022/07/03 16:44:41;;;;;;;2.97;1.50;;;34.90;43.40;;;33.85;27.44;100026.63;10247237;28;97512;-84
2022/07/03 16:49:45;;;;;;;3.30;1.52;;;34.70;44.00;;;33.87;27.88;100031.78;10259954;28;97810;-84
2022/07/03 16:54:54;;;;;;;1.77;1.38;;;34.80;44.50;;;34.05;28.23;100028.69;10253421;28;97270;-85
2022/07/03 16:59:58;;;;;;;4.82;1.50;;;35.00;44.60;;;34.03;27.65;100028.22;10245252;28;97498;-83
2022/07/03 17:05:02;;;;;;;3.38;1.83;;;35.00;44.40;;;33.92;27.90;100032.47;10269116;28;96619;-84
2022/07/03 17:10:06;;;;;;;3.38;1.50;;;34.90;44.50;;;33.87;28.26;100023.53;10252240;28;96821;-84
2022/07/03 17:15:11;;;;;;;2.35;1.50;;;34.80;44.60;;;33.89;27.77;100021.22;10254339;28;96900;-83
2022/07/03 17:20:24;;;;;;;2.60;1.35;;;34.90;44.60;;;33.69;28.32;100033.75;10251222;28;96955;-83
2022/07/03 17:25:28;;;;;;;2.67;2.17;;;34.70;44.30;;;33.51;28.25;100030.22;10253449;28;96731;-84
2022/07/03 17:30:42;;;;;;;1.98;1.50;;;34.50;44.40;;;33.31;27.57;100028.09;10253969;28;97204;-83
2022/07/03 17:35:55;;;;;;;3.38;1.80;;;34.30;43.80;;;32.89;27.48;100030.47;10253058;28;96909;-83
2022/07/03 17:41:00;;;;;;;3.70;1.70;;;33.80;43.80;;;32.44;28.47;100039.69;10236649;28;96695;-83
2022/07/03 17:46:03;;;;;;;2.97;1.73;;;33.40;44.50;;;31.99;29.10;100036.22;10254012;28;96703;-83
2022/07/03 17:51:08;;;;;;;6.45;1.40;;;33.00;44.90;;;31.62;29.79;100037.41;10252713;28;96531;-83
2022/07/03 17:56:13;;;;;;;4.68;1.80;;;32.60;45.40;;;31.25;30.34;100033.88;10251454;28;97210;-83
2022/07/03 18:01:19;;;;;;;3.75;1.30;;;32.20;46.00;;;30.91;31.43;100026.09;10255253;28;96790;-83
2022/07/03 18:06:28;;;;;;;2.70;1.60;;;32.00;46.70;;;30.64;31.65;100030.44;10258473;28;98443;-82
2022/07/03 18:11:57;;;;;;;6.20;1.75;;;31.70;47.10;;;30.32;32.62;100036.03;10259083;28;96677;-83
2022/07/03 18:17:01;;;;;;;4.93;1.80;;;31.40;47.60;;;30.06;32.76;100044.69;10260952;28;96542;-83
2022/07/03 18:22:05;;;;;;;3.63;1.75;;;31.20;47.90;;;29.80;33.33;100040.75;10258228;28;97356;-83
2022/07/03 18:27:15;;;;;;;3.38;1.50;;;31.00;48.30;;;29.56;34.43;100040.84;10242307;28;97217;-82
2022/07/03 18:32:18;;;;;;;4.40;1.70;;;30.70;48.70;;;29.31;34.78;100042.03;10259736;28;96531;-83
2022/07/03 18:37:21;;;;;;;11.05;1.75;;;30.50;49.20;;;29.11;35.40;100043.16;10243336;28;96739;-83
2022/07/03 18:42:25;;;;;;;2.10;1.65;;;30.30;49.90;;;28.80;36.70;100039.97;10260001;28;96634;-82
2022/07/03 18:47:28;;;;;;;3.95;1.50;;;30.00;50.80;;;28.49;37.01;100045.81;10260748;28;96469;-83
2022/07/03 18:52:42;;;;;;;2.10;1.60;;;29.70;51.40;;;28.19;37.79;100057.03;10259008;28;96614;-83
2022/07/03 18:58:12;;;;;;;3.55;1.83;;;29.40;51.80;;;27.94;37.91;100061.59;10275677;28;96603;-83
2022/07/03 19:03:21;;;;;;;2.75;1.75;;;29.10;51.90;;;27.70;38.33;100069.69;10259487;28;96655;-83
2022/07/03 19:08:38;;;;;;;4.15;1.85;;;28.90;52.20;;;27.51;39.09;100073.38;10256791;28;96607;-83
2022/07/03 19:13:48;;;;;;;3.88;1.63;;;28.70;52.40;;;27.28;39.29;100072.94;10259896;28;96446;-83
2022/07/03 19:18:51;;;;;;;2.30;1.60;;;28.50;52.70;;;27.09;39.76;100075.50;10257590;28;96835;-82
2022/07/03 19:23:53;;;;;;;4.13;2.08;;;28.40;53.50;;;26.87;40.73;100081.31;10257563;28;96577;-83
2022/07/03 19:28:56;;;;;;;3.13;1.83;;;28.10;54.00;;;26.63;41.10;100085.75;10258773;28;96547;-82
2022/07/03 19:33:59;;;;;;;5.72;1.98;;;27.90;55.10;;;26.44;41.72;100093.66;10257815;28;96612;-82
2022/07/03 19:39:05;;;;;;;6.35;2.13;;;27.60;55.00;;;26.28;42.09;100084.69;10258026;28;96713;-83
2022/07/03 19:44:08;;;;;;;5.07;2.05;;;27.50;55.40;;;26.11;42.57;100084.97;10217878;28;96501;-82
2022/07/03 19:49:12;;;;;;;5.55;1.90;;;27.30;55.70;;;25.95;43.17;100088.78;10250032;28;96692;-83
2022/07/03 19:54:18;;;;;;;2.17;1.52;;;27.20;56.10;;;25.80;43.01;100089.59;10256547;28;96637;-83
2022/07/03 19:59:20;;;;;;;4.82;1.58;;;27.00;56.10;;;25.70;43.45;100084.13;10277259;28;96631;-82
2022/07/03 20:04:24;;;;;;;3.80;2.00;;;26.90;56.60;;;25.61;44.07;100075.69;10262379;28;96675;-83
2022/07/03 20:09:27;;;;;;;2.78;1.92;;;26.70;57.00;;;25.45;44.48;100074.00;10239848;28;98059;-83
2022/07/03 20:14:30;;;;;;;2.63;1.80;;;26.60;57.50;;;25.32;45.19;100083.50;10257629;28;96739;-82
2022/07/03 20:19:33;;;;;;;1.85;1.70;;;26.50;57.90;;;25.20;44.88;100080.22;10241666;28;98197;-82
2022/07/03 20:24:37;;;;;;;8.35;2.08;;;26.30;57.80;;;25.14;45.30;100081.28;10228425;28;97389;-82
2022/07/03 20:29:46;;;;;;;2.63;2.10;;;26.30;58.20;;;25.08;45.36;100071.47;10240948;28;97721;-82
2022/07/03 20:34:50;;;;;;;2.10;1.90;;;26.20;58.60;;;25.13;45.02;100078.81;10257366;28;97650;-82
2022/07/03 20:39:54;;;;;;;4.15;2.15;;;26.10;58.50;;;25.20;44.47;100069.34;10250077;28;96746;-84
2022/07/03 20:44:57;;;;;;;4.32;1.92;;;26.20;58.10;;;25.31;43.92;100075.63;10247327;28;96803;-83
2022/07/03 20:50:21;;;;;;;3.20;2.05;;;26.30;57.60;;;25.41;43.50;100077.53;10247157;28;100028;-83
2022/07/03 20:55:34;;;;;;;4.35;2.13;;;26.40;57.20;;;25.46;43.15;100067.47;10241497;28;97648;-83
2022/07/03 21:00:37;;;;;;;2.72;1.80;;;26.50;56.90;;;25.53;42.92;100078.09;10250470;28;98158;-83
2022/07/03 21:05:40;;;;;;;5.43;1.88;;;26.50;56.60;;;25.58;42.73;100072.66;10224665;28;97085;-82
2022/07/03 21:16:04;;;;;;;3.70;1.80;;;26.60;56.10;;;25.59;42.07;100079.75;10245407;28;98351;-82
2022/07/03 21:21:08;;;;;;;2.40;1.77;;;26.60;55.80;;;25.57;42.22;100081.94;10237196;28;97477;-82
2022/07/03 21:26:10;;;;;;;2.60;1.75;;;26.60;55.90;;;25.50;42.48;100087.63;10230681;28;97563;-83
2022/07/03 21:31:14;;;;;;;2.80;1.60;;;26.50;55.90;;;25.33;43.31;100084.31;10233797;28;97976;-82
2022/07/03 21:36:18;;;;;;;3.38;1.67;;;26.50;56.50;;;25.16;42.96;100081.81;10241340;28;98739;-82
2022/07/03 21:41:21;;;;;;;3.10;1.67;;;26.30;56.30;;;25.07;42.92;100086.16;10241161;28;96785;-82